X  Κλείσε Στοιχεία αεροπορικών μετεωρολογικών δεδομένων METAR     KMYR Myrtle Beach International Airport
θερμοκρασία
27°F θερμοκρασία
27°F Σημείο δρόσου
100% Υγρασία



Ανεμος
3 MPH
5 KM/H
1 M/S
3 KTS



340°
VVD
Τρέχουσες συνθήκες

Σαφή Σαφή
πίεση 1024.72 (hPa) - 30.26 (inHg)
Ορατότητα 0 (μίλι) - 0 (km)
Aεροδρόμιο
Κωδικός αεροδρομίου KMYR

Τοποθεσία: Myrtle Beach International Airport
Απόσταση: 31 (mi)

Metar:
KMYR 230256Z 34003KT CLR M03/M03 A3026 RMK AO2 SLP247 T10281033 58001 $

ώρα: 01-22-2022 9:56 pm EST